Time;durP1;ratioP1;P1;durP2;ratioP2;P2;SDS_P1;SDS_P2;PMS_P1;PMS_P2;Temp;Humidity;BMP_temperature;BMP_pressure;BME280_temperature;BME280_humidity;BME280_pressure;Samples;Min_cycle;Max_cycle;Signal;HPM_P1;HPM_P2
2023/02/10 00:01:15;;;;;;;66.35;31.80;;;1.40;99.90;;;;;;5020940;28;20033;-95
2023/02/10 00:03:41;;;;;;;74.78;32.90;;;1.40;99.90;;;;;;5036053;28;20490;-93
2023/02/10 00:06:08;;;;;;;64.07;29.67;;;1.40;99.90;;;;;;5038070;28;20080;-95
2023/02/10 00:08:34;;;;;;;67.45;32.53;;;1.30;99.90;;;;;;5038025;28;20037;-95
2023/02/10 00:11:06;;;;;;;68.38;30.77;;;1.30;99.90;;;;;;5032540;28;20125;-96
2023/02/10 00:13:32;;;;;;;66.72;32.35;;;1.30;99.90;;;;;;5035678;28;20049;-95
2023/02/10 00:16:00;;;;;;;69.57;32.85;;;1.30;99.90;;;;;;5038574;28;20034;-96
2023/02/10 00:18:26;;;;;;;67.28;30.58;;;1.30;99.90;;;;;;5038472;28;20032;-96
2023/02/10 00:20:52;;;;;;;71.35;32.35;;;1.30;99.90;;;;;;5034302;28;20120;-95
2023/02/10 00:23:17;;;;;;;71.32;32.28;;;1.30;99.90;;;;;;5037598;28;20061;-96
2023/02/10 00:25:43;;;;;;;78.45;33.40;;;1.30;99.90;;;;;;5038440;28;20096;-96
2023/02/10 00:28:09;;;;;;;65.03;32.53;;;1.30;99.90;;;;;;5037509;28;20037;-96
2023/02/10 00:30:35;;;;;;;65.82;32.28;;;1.20;99.90;;;;;;5038215;28;20025;-95
2023/02/10 00:33:01;;;;;;;70.20;32.17;;;1.20;99.90;;;;;;5037910;28;20028;-95
2023/02/10 00:35:26;;;;;;;71.68;34.00;;;1.20;99.90;;;;;;5036501;28;20033;-94
2023/02/10 00:37:52;;;;;;;68.85;33.67;;;1.20;99.90;;;;;;5030981;28;20030;-95
2023/02/10 00:40:18;;;;;;;77.72;33.53;;;1.20;99.90;;;;;;5012467;28;20076;-95
2023/02/10 00:42:43;;;;;;;69.03;33.05;;;1.20;99.90;;;;;;5037581;28;20083;-96
2023/02/10 00:45:09;;;;;;;70.32;31.63;;;1.30;99.90;;;;;;5038277;28;20036;-95
2023/02/10 00:47:35;;;;;;;66.88;32.63;;;1.20;99.90;;;;;;5036424;28;20065;-96
2023/02/10 00:50:01;;;;;;;73.53;33.78;;;1.20;99.90;;;;;;5040826;28;20030;-96
2023/02/10 00:52:27;;;;;;;73.80;33.05;;;1.20;99.90;;;;;;5025038;28;20093;-96
2023/02/10 00:54:53;;;;;;;74.78;33.38;;;1.10;99.90;;;;;;5042991;28;20109;-95
2023/02/10 00:57:20;;;;;;;74.55;34.05;;;1.10;99.90;;;;;;5034652;28;20104;-94
2023/02/10 00:59:46;;;;;;;72.25;33.10;;;1.10;99.90;;;;;;5042165;28;20029;-96
2023/02/10 01:02:12;;;;;;;77.78;33.85;;;1.10;99.90;;;;;;5041322;28;20064;-96
2023/02/10 01:04:38;;;;;;;81.93;33.38;;;1.00;99.90;;;;;;5030905;28;20041;-96
2023/02/10 01:07:03;;;;;;;76.63;34.22;;;1.00;99.90;;;;;;5022876;28;20022;-96
2023/02/10 01:09:29;;;;;;;72.82;33.88;;;1.00;99.90;;;;;;5044904;28;20025;-96
2023/02/10 01:11:55;;;;;;;75.78;35.83;;;0.90;99.90;;;;;;5029418;28;20025;-96
2023/02/10 01:14:21;;;;;;;77.22;33.47;;;0.90;99.90;;;;;;5043255;28;20070;-96
2023/02/10 01:16:46;;;;;;;74.93;32.67;;;0.90;99.90;;;;;;5033127;28;20025;-96
2023/02/10 01:19:12;;;;;;;62.72;30.98;;;0.90;99.90;;;;;;5046586;28;20068;-95
2023/02/10 01:21:38;;;;;;;80.32;34.63;;;0.90;99.90;;;;;;5032084;28;20045;-95
2023/02/10 01:24:05;;;;;;;66.90;33.33;;;0.90;99.90;;;;;;5030606;28;20033;-96
2023/02/10 01:26:32;;;;;;;73.28;34.40;;;0.90;99.90;;;;;;5045374;28;20030;-96
2023/02/10 01:28:59;;;;;;;70.60;32.17;;;0.90;99.90;;;;;;5014073;28;20042;-95
2023/02/10 01:31:30;;;;;;;69.72;32.60;;;0.80;99.90;;;;;;5031598;28;20054;-95
2023/02/10 01:33:57;;;;;;;72.80;33.25;;;0.80;99.90;;;;;;5038934;28;20021;-96
2023/02/10 01:36:25;;;;;;;75.22;33.85;;;0.90;99.90;;;;;;5033966;28;20033;-96
2023/02/10 01:38:54;;;;;;;67.35;29.52;;;0.80;99.90;;;;;;5050708;28;20026;-96
2023/02/10 01:41:22;;;;;;;70.35;30.73;;;0.80;99.90;;;;;;5052451;28;20048;-96
2023/02/10 01:44:19;;;;;;;72.10;32.63;;;0.80;99.90;;;;;;5052058;28;20021;-96
2023/02/10 01:46:46;;;;;;;66.85;30.70;;;0.80;99.90;;;;;;5050711;28;20030;-96
2023/02/10 01:49:18;;;;;;;72.15;30.52;;;0.80;99.90;;;;;;5049685;28;20034;-96
2023/02/10 01:51:55;;;;;;;66.45;29.55;;;0.80;99.90;;;;;;5050848;28;20025;-95
2023/02/10 01:54:38;;;;;;;70.00;31.60;;;0.80;99.90;;;;;;5053305;28;20048;-96
2023/02/10 01:57:06;;;;;;;63.97;29.70;;;0.80;99.90;;;;;;5055384;28;20039;-94
2023/02/10 01:59:35;;;;;;;66.97;30.40;;;0.80;99.90;;;;;;5057395;28;20151;-84
2023/02/10 02:02:07;;;;;;;62.78;29.42;;;0.80;99.90;;;;;;5020136;28;20097;-96
2023/02/10 02:04:54;;;;;;;67.88;30.67;;;0.80;99.90;;;;;;5033041;28;20054;-96
2023/02/10 02:07:32;;;;;;;75.40;30.33;;;0.80;99.90;;;;;;5033125;28;20050;-96
2023/02/10 02:10:03;;;;;;;67.35;30.80;;;0.80;99.90;;;;;;5016791;28;20053;-96
2023/02/10 02:12:48;;;;;;;64.95;30.42;;;0.80;99.90;;;;;;5044312;28;20046;-95
2023/02/10 02:15:56;;;;;;;66.65;28.92;;;0.90;99.90;;;;;;5063194;28;20026;-96
2023/02/10 02:19:02;;;;;;;62.78;29.70;;;0.80;99.90;;;;;;5033843;28;20053;-96
2023/02/10 02:21:44;;;;;;;67.93;29.55;;;0.80;99.90;;;;;;5014634;28;20035;-96
2023/02/10 02:25:07;;;;;;;70.75;29.55;;;0.80;99.90;;;;;;5034055;28;20034;-96
2023/02/10 02:28:36;;;;;;;58.95;28.08;;;0.80;99.90;;;;;;5016020;28;20018;-96
2023/02/10 02:31:39;;;;;;;62.95;27.15;;;0.60;99.90;;;;;;4994977;28;20074;-96
2023/02/10 02:34:29;;;;;;;67.25;29.05;;;0.70;99.90;;;;;;4997132;28;20031;-96
2023/02/10 02:37:27;;;;;;;63.65;29.67;;;0.70;99.90;;;;;;4998524;28;20094;-95
2023/02/10 02:40:41;;;;;;;70.68;30.23;;;0.70;99.90;;;;;;4963635;28;20031;-96
2023/02/10 02:43:16;;;;;;;71.50;29.95;;;0.70;99.90;;;;;;4975347;28;20043;-96
2023/02/10 02:46:18;;;;;;;62.72;30.00;;;0.60;99.90;;;;;;5068611;28;20444;-69
2023/02/10 02:49:12;;;;;;;70.95;31.80;;;0.70;99.90;;;;;;5059288;28;20109;-69
2023/02/10 02:51:57;;;;;;;64.25;29.05;;;0.70;99.90;;;;;;5068431;28;20025;-69
2023/02/10 02:54:38;;;;;;;68.82;31.10;;;0.70;99.90;;;;;;5063633;28;20021;-69
2023/02/10 02:57:15;;;;;;;71.47;31.75;;;0.70;99.90;;;;;;5047958;28;20072;-69
2023/02/10 02:59:47;;;;;;;72.03;31.83;;;0.60;99.90;;;;;;5048541;28;20021;-69
2023/02/10 03:02:14;;;;;;;;;;;0.60;99.90;;;;;;5046633;28;20481;-69
2023/02/10 03:04:40;;;;;;;67.30;29.42;;;0.50;99.90;;;;;;5048332;28;20357;-69
2023/02/10 03:07:06;;;;;;;75.20;32.80;;;0.50;99.90;;;;;;5047884;28;20138;-69
2023/02/10 03:09:32;;;;;;;71.93;32.25;;;0.50;99.90;;;;;;5063028;28;20037;-69
2023/02/10 03:11:58;;;;;;;79.25;32.65;;;0.50;99.90;;;;;;5053492;28;20040;-69
2023/02/10 03:14:24;;;;;;;63.78;30.83;;;0.50;99.90;;;;;;5048159;28;20026;-69
2023/02/10 03:16:50;;;;;;;67.40;31.70;;;0.50;99.90;;;;;;5064044;28;20423;-69
2023/02/10 03:19:16;;;;;;;64.10;29.85;;;0.50;99.90;;;;;;5056322;28;20036;-69
2023/02/10 03:21:41;;;;;;;70.40;30.67;;;0.40;99.90;;;;;;5050525;28;20108;-69
2023/02/10 03:24:08;;;;;;;69.88;31.55;;;0.40;99.90;;;;;;5059260;28;20035;-69
2023/02/10 03:26:34;;;;;;;72.57;32.63;;;0.40;99.90;;;;;;5059087;28;20032;-69
2023/02/10 03:29:00;;;;;;;75.63;32.75;;;0.30;99.90;;;;;;5052502;28;20047;-69
2023/02/10 03:31:26;;;;;;;72.95;32.35;;;0.30;99.90;;;;;;5058251;28;20554;-69
2023/02/10 03:33:51;;;;;;;78.00;33.38;;;0.30;99.90;;;;;;5055297;28;20035;-69
2023/02/10 03:36:17;;;;;;;84.07;33.30;;;0.30;99.90;;;;;;5063297;28;20060;-70
2023/02/10 03:38:42;;;;;;;79.22;34.65;;;0.30;99.90;;;;;;5055189;28;20051;-69
2023/02/10 03:41:08;;;;;;;78.82;34.60;;;0.40;99.90;;;;;;5058189;28;20411;-69
2023/02/10 03:43:33;;;;;;;71.88;34.22;;;0.40;99.90;;;;;;5046614;28;20032;-69
2023/02/10 03:46:01;;;;;;;83.80;35.58;;;0.40;99.90;;;;;;5054065;28;20472;-69
2023/02/10 03:48:30;;;;;;;79.85;34.95;;;0.40;99.90;;;;;;5054829;28;20024;-69
2023/02/10 03:51:00;;;;;;;79.70;36.30;;;0.40;99.90;;;;;;5058127;28;20476;-69
2023/02/10 03:53:26;;;;;;;76.68;33.92;;;0.40;99.90;;;;;;5047926;28;20065;-69
2023/02/10 03:55:52;;;;;;;79.47;33.78;;;0.30;99.90;;;;;;5044922;28;20037;-69
2023/02/10 03:58:18;;;;;;;81.90;36.10;;;0.30;99.90;;;;;;5040471;28;20040;-69
2023/02/10 04:00:43;;;;;;;77.07;33.53;;;0.30;99.90;;;;;;5041630;28;20033;-69
2023/02/10 04:03:09;;;;;;;89.25;36.10;;;0.30;99.90;;;;;;5048493;28;20069;-69
2023/02/10 04:05:34;;;;;;;75.57;33.00;;;0.20;99.90;;;;;;5045930;28;20568;-69
2023/02/10 04:08:00;;;;;;;73.32;32.92;;;0.30;99.90;;;;;;5039831;28;20036;-69
2023/02/10 04:10:26;;;;;;;78.47;34.30;;;0.20;99.90;;;;;;5047136;28;20049;-69
2023/02/10 04:12:51;;;;;;;72.22;31.98;;;0.20;99.90;;;;;;5038716;28;20036;-70
2023/02/10 04:15:17;;;;;;;81.82;36.50;;;0.20;99.90;;;;;;5041785;28;20028;-70
2023/02/10 04:17:43;;;;;;;83.65;35.53;;;0.20;99.90;;;;;;5034118;28;20038;-70
2023/02/10 04:20:09;;;;;;;82.25;36.30;;;0.20;99.90;;;;;;5038585;28;20033;-69
2023/02/10 04:22:35;;;;;;;78.22;35.83;;;0.10;99.90;;;;;;5040747;28;20464;-69
2023/02/10 04:25:00;;;;;;;81.30;35.63;;;0.10;99.90;;;;;;5043237;28;20154;-69
2023/02/10 04:27:26;;;;;;;85.13;36.08;;;0.10;99.90;;;;;;5045485;28;20481;-69
2023/02/10 04:29:51;;;;;;;81.78;36.60;;;0.00;99.90;;;;;;5047268;28;20033;-69
2023/02/10 04:32:17;;;;;;;77.22;35.58;;;0.00;99.90;;;;;;5042638;28;20021;-69
2023/02/10 04:34:42;;;;;;;88.03;38.03;;;0.10;99.90;;;;;;5034070;28;20397;-69
2023/02/10 04:37:08;;;;;;;87.90;37.35;;;0.10;99.90;;;;;;5039657;28;20033;-69
2023/02/10 04:39:34;;;;;;;82.07;37.85;;;0.10;99.90;;;;;;5041677;28;20025;-70
2023/02/10 04:41:59;;;;;;;86.63;37.85;;;0.00;99.90;;;;;;5038661;28;20440;-69
2023/02/10 04:44:25;;;;;;;97.00;41.13;;;0.00;99.90;;;;;;5030854;28;20413;-70
2023/02/10 04:46:51;;;;;;;86.53;39.45;;;0.00;99.90;;;;;;5042801;28;20385;-69
2023/02/10 04:49:17;;;;;;;88.18;38.25;;;0.00;99.90;;;;;;5042332;28;20021;-69
2023/02/10 04:51:43;;;;;;;86.82;37.30;;;0.00;99.90;;;;;;5051623;28;20108;-69
2023/02/10 04:54:08;;;;;;;85.45;39.25;;;0.00;99.90;;;;;;5052139;28;20476;-69
2023/02/10 04:56:34;;;;;;;95.63;43.45;;;0.00;99.90;;;;;;5051141;28;20037;-70
2023/02/10 04:58:59;;;;;;;99.30;44.47;;;0.00;99.90;;;;;;5051808;28;20070;-69
2023/02/10 05:01:25;;;;;;;91.80;43.15;;;0.00;99.90;;;;;;5049875;28;20025;-69
2023/02/10 05:03:51;;;;;;;92.38;41.92;;;0.00;99.90;;;;;;5039083;28;20389;-69
2023/02/10 05:06:16;;;;;;;83.38;38.72;;;0.00;99.90;;;;;;5048150;28;20082;-69
2023/02/10 05:08:42;;;;;;;85.90;39.83;;;0.00;99.90;;;;;;5030636;28;20362;-71
2023/02/10 05:11:11;;;;;;;94.50;40.13;;;0.00;99.90;;;;;;5032392;28;20473;-70
2023/02/10 05:13:37;;;;;;;96.60;39.42;;;0.00;99.90;;;;;;5036899;28;20020;-69
2023/02/10 05:16:03;;;;;;;95.93;40.90;;;0.00;99.90;;;;;;5035849;28;20025;-69
2023/02/10 05:18:30;;;;;;;92.47;37.85;;;0.00;99.90;;;;;;5051254;28;20053;-70
2023/02/10 05:20:56;;;;;;;93.15;38.75;;;-0.10;99.90;;;;;;5051368;28;20036;-70
2023/02/10 05:23:22;;;;;;;87.18;37.22;;;-0.10;99.90;;;;;;5044686;28;20052;-70
2023/02/10 05:25:47;;;;;;;93.68;40.15;;;-0.10;99.90;;;;;;5031800;28;20080;-70
2023/02/10 05:28:13;;;;;;;94.28;40.25;;;-0.10;99.90;;;;;;5049938;28;20039;-70
2023/02/10 05:30:38;;;;;;;96.00;39.42;;;-0.10;99.90;;;;;;5045883;28;20025;-69
2023/02/10 05:33:04;;;;;;;97.15;41.08;;;-0.10;99.90;;;;;;5044678;28;20214;-69
2023/02/10 05:35:29;;;;;;;88.97;39.88;;;-0.10;99.90;;;;;;5045910;28;20040;-69
2023/02/10 05:37:55;;;;;;;93.45;40.80;;;-0.10;99.90;;;;;;5031432;28;20029;-69
2023/02/10 05:40:20;;;;;;;84.20;37.75;;;-0.10;99.90;;;;;;5049224;28;20036;-69
2023/02/10 05:42:46;;;;;;;96.72;39.80;;;-0.10;99.90;;;;;;5037582;28;20026;-69
2023/02/10 05:45:12;;;;;;;93.57;39.63;;;0.00;99.90;;;;;;5035220;28;20533;-69
2023/02/10 05:47:37;;;;;;;94.78;39.20;;;0.00;99.90;;;;;;5043439;28;20477;-69
2023/02/10 05:50:03;;;;;;;91.00;40.03;;;-0.10;99.90;;;;;;5039426;28;20384;-69
2023/02/10 05:52:28;;;;;;;107.35;41.55;;;0.00;99.90;;;;;;5048496;28;20515;-69
2023/02/10 05:54:54;;;;;;;100.00;39.58;;;-0.10;99.90;;;;;;5040503;28;20044;-69
2023/02/10 05:57:19;;;;;;;91.85;40.53;;;0.00;99.90;;;;;;5040205;28;20060;-70
2023/02/10 05:59:45;;;;;;;100.82;41.42;;;-0.10;99.90;;;;;;5037437;28;20033;-69
2023/02/10 06:02:10;;;;;;;87.97;39.83;;;-0.10;99.90;;;;;;5049193;28;20036;-69
2023/02/10 06:04:36;;;;;;;100.50;41.45;;;-0.10;99.90;;;;;;5036993;28;20033;-69
2023/02/10 06:07:02;;;;;;;86.93;38.08;;;-0.10;99.90;;;;;;5032227;28;20025;-69
2023/02/10 06:09:27;;;;;;;96.97;40.58;;;-0.20;99.90;;;;;;5031896;28;20032;-69
2023/02/10 06:11:53;;;;;;;95.68;40.70;;;-0.10;99.90;;;;;;5047114;28;20202;-69
2023/02/10 06:14:19;;;;;;;94.35;42.90;;;-0.20;99.90;;;;;;5037544;28;20021;-69
2023/02/10 06:16:44;;;;;;;97.78;39.97;;;-0.20;99.90;;;;;;5032927;28;20028;-69
2023/02/10 06:19:10;;;;;;;97.35;40.67;;;-0.20;99.90;;;;;;5030955;28;20029;-69
2023/02/10 06:21:36;;;;;;;99.55;44.45;;;-0.10;99.90;;;;;;5031710;28;20136;-69
2023/02/10 06:24:01;;;;;;;92.07;39.70;;;-0.20;99.90;;;;;;5036564;28;20404;-70
2023/02/10 06:26:27;;;;;;;98.72;40.80;;;-0.20;99.90;;;;;;5033960;28;20033;-70
2023/02/10 06:28:54;;;;;;;94.82;40.72;;;-0.20;99.90;;;;;;5043675;28;20485;-69
2023/02/10 06:31:19;;;;;;;93.28;40.72;;;-0.20;99.90;;;;;;5036381;28;20034;-69
2023/02/10 06:33:45;;;;;;;103.15;43.20;;;-0.10;99.90;;;;;;5039562;28;20025;-69
2023/02/10 06:36:11;;;;;;;110.45;41.88;;;-0.10;99.90;;;;;;5034375;28;20021;-70
2023/02/10 06:38:38;;;;;;;108.70;40.60;;;-0.10;99.90;;;;;;5035853;28;20476;-69
2023/02/10 06:41:04;;;;;;;138.55;41.65;;;0.00;99.90;;;;;;5038583;28;20029;-69
2023/02/10 06:43:30;;;;;;;156.38;41.13;;;0.10;99.90;;;;;;5033901;28;20099;-69
2023/02/10 06:45:55;;;;;;;179.38;39.33;;;0.10;99.90;;;;;;5033619;28;20084;-69
2023/02/10 06:48:21;;;;;;;150.52;38.47;;;0.10;99.90;;;;;;5042398;28;20092;-69
2023/02/10 06:50:46;;;;;;;188.45;41.47;;;0.10;99.90;;;;;;5039727;28;20022;-69
2023/02/10 06:53:12;;;;;;;491.25;52.92;;;0.20;99.90;;;;;;5026137;28;20032;-69
2023/02/10 06:55:37;;;;;;;221.02;42.65;;;0.20;99.90;;;;;;5034067;28;20074;-69
2023/02/10 06:58:03;;;;;;;132.55;41.40;;;0.20;99.90;;;;;;5042447;28;20021;-70
2023/02/10 07:00:32;;;;;;;146.57;42.38;;;0.20;99.90;;;;;;5038491;28;20160;-69
2023/02/10 07:02:58;;;;;;;154.52;41.97;;;0.30;99.90;;;;;;5030888;28;20102;-69
2023/02/10 07:05:24;;;;;;;302.23;41.95;;;0.30;99.90;;;;;;5028270;28;20034;-70
2023/02/10 07:07:53;;;;;;;141.32;36.40;;;0.30;99.90;;;;;;5033965;28;20024;-70
2023/02/10 07:10:19;;;;;;;171.95;39.45;;;0.30;99.90;;;;;;5040835;28;20017;-70
2023/02/10 07:12:46;;;;;;;164.30;40.03;;;0.30;99.90;;;;;;5031042;28;20027;-70
2023/02/10 07:15:13;;;;;;;131.13;41.83;;;0.40;99.90;;;;;;5030175;28;20032;-70
2023/02/10 07:17:38;;;;;;;137.85;40.53;;;0.40;99.90;;;;;;5030195;28;20029;-70
2023/02/10 07:20:05;;;;;;;128.70;40.47;;;0.40;99.90;;;;;;5041809;28;20389;-69
2023/02/10 07:22:30;;;;;;;120.43;38.47;;;0.40;99.90;;;;;;5030200;28;20409;-69
2023/02/10 07:24:56;;;;;;;182.40;40.45;;;0.40;99.90;;;;;;5034400;28;20037;-69
2023/02/10 07:27:22;;;;;;;133.13;39.28;;;0.50;99.90;;;;;;5034262;28;20032;-70
2023/02/10 07:29:48;;;;;;;94.90;38.05;;;0.50;99.90;;;;;;5047399;28;20052;-69
2023/02/10 07:32:14;;;;;;;112.35;38.08;;;0.60;99.90;;;;;;5038976;28;20033;-71
2023/02/10 07:34:40;;;;;;;110.50;37.72;;;0.60;99.90;;;;;;5050476;28;20021;-70
2023/02/10 07:37:06;;;;;;;138.20;39.15;;;0.60;99.90;;;;;;5038769;28;20434;-70
2023/02/10 07:39:32;;;;;;;112.20;38.50;;;0.60;99.90;;;;;;5039649;28;20025;-70
2023/02/10 07:41:57;;;;;;;90.57;35.05;;;0.70;99.90;;;;;;5041588;28;20044;-69
2023/02/10 07:44:23;;;;;;;113.65;38.80;;;0.70;99.90;;;;;;5035305;28;20052;-70
2023/02/10 07:46:51;;;;;;;118.55;39.33;;;0.70;99.90;;;;;;5044132;28;20037;-69
2023/02/10 07:49:17;;;;;;;113.13;35.53;;;0.80;99.90;;;;;;5043993;28;20025;-69
2023/02/10 07:51:42;;;;;;;128.23;39.53;;;0.80;99.90;;;;;;5039099;28;20021;-69
2023/02/10 07:54:09;;;;;;;117.88;38.92;;;0.80;99.90;;;;;;5044902;28;20100;-69
2023/02/10 07:56:34;;;;;;;125.63;39.50;;;0.90;99.90;;;;;;5045204;28;20361;-70
2023/02/10 07:59:00;;;;;;;104.38;36.38;;;0.90;99.90;;;;;;5053773;28;20115;-69
2023/02/10 08:01:25;;;;;;;121.93;39.58;;;1.00;99.90;;;;;;5041884;28;20021;-69
2023/02/10 08:03:51;;;;;;;114.55;39.50;;;1.00;99.90;;;;;;5032810;28;20410;-69
2023/02/10 08:06:22;;;;;;;107.35;38.22;;;1.10;99.90;;;;;;5050756;28;20029;-69
2023/02/10 08:08:48;;;;;;;135.20;39.53;;;1.10;99.90;;;;;;5033548;28;20032;-69
2023/02/10 08:11:14;;;;;;;102.55;36.35;;;1.10;99.90;;;;;;5034344;28;20026;-69
2023/02/10 08:13:40;;;;;;;135.80;40.80;;;1.20;99.90;;;;;;5034029;28;20072;-69
2023/02/10 08:16:07;;;;;;;126.30;37.70;;;1.20;99.90;;;;;;5033693;28;20072;-69
2023/02/10 08:18:34;;;;;;;103.28;35.83;;;1.20;99.90;;;;;;5040413;28;20411;-69
2023/02/10 08:21:00;;;;;;;117.72;37.88;;;1.20;99.90;;;;;;5042874;28;20025;-69
2023/02/10 08:23:26;;;;;;;114.50;37.35;;;1.20;99.90;;;;;;5045371;28;20029;-69
2023/02/10 08:25:51;;;;;;;117.85;39.08;;;1.20;99.90;;;;;;5033744;28;20124;-69
2023/02/10 08:28:18;;;;;;;109.88;39.17;;;1.30;99.90;;;;;;5033138;28;20021;-69
2023/02/10 08:30:43;;;;;;;108.90;38.08;;;1.30;99.90;;;;;;5035257;28;20040;-69
2023/02/10 08:33:09;;;;;;;114.97;38.58;;;1.30;99.90;;;;;;5037795;28;20017;-69
2023/02/10 08:35:37;;;;;;;110.88;38.00;;;1.30;99.90;;;;;;5034883;28;20029;-69
2023/02/10 08:38:04;;;;;;;110.57;36.33;;;1.40;99.90;;;;;;5033866;28;20119;-69
2023/02/10 08:40:29;;;;;;;113.32;38.97;;;1.40;99.90;;;;;;5035965;28;20392;-69
2023/02/10 08:42:55;;;;;;;118.90;43.85;;;1.50;99.90;;;;;;5046342;28;20033;-69
2023/02/10 08:45:21;;;;;;;137.05;43.38;;;1.60;99.90;;;;;;5037906;28;20053;-69
2023/02/10 08:47:46;;;;;;;121.68;39.78;;;1.80;99.90;;;;;;5043531;28;20036;-69
2023/02/10 08:50:12;;;;;;;131.43;39.45;;;1.90;99.90;;;;;;5035745;28;20480;-69
2023/02/10 08:52:38;;;;;;;114.38;37.10;;;2.00;99.90;;;;;;5039063;28;20100;-69
2023/02/10 08:55:04;;;;;;;109.13;38.55;;;2.00;99.90;;;;;;5032869;28;20495;-69
2023/02/10 08:57:29;;;;;;;124.43;38.33;;;2.00;99.90;;;;;;5032651;28;20024;-69
2023/02/10 08:59:55;;;;;;;122.97;40.92;;;2.00;99.90;;;;;;5032960;28;20029;-70
2023/02/10 09:02:20;;;;;;;115.22;37.67;;;2.00;99.90;;;;;;5032179;28;20017;-69
2023/02/10 09:04:46;;;;;;;121.78;38.40;;;2.00;99.90;;;;;;5040938;28;20045;-69
2023/02/10 09:07:13;;;;;;;121.90;39.25;;;2.10;99.90;;;;;;5031215;28;20444;-70
2023/02/10 09:09:41;;;;;;;112.55;36.45;;;2.10;99.90;;;;;;5052687;28;20099;-69
2023/02/10 09:12:09;;;;;;;113.88;36.47;;;2.20;99.90;;;;;;5051589;28;20029;-70
2023/02/10 09:14:35;;;;;;;148.55;38.47;;;2.30;99.90;;;;;;5052186;28;20025;-70
2023/02/10 09:17:01;;;;;;;127.13;38.00;;;2.30;99.90;;;;;;5037932;28;20040;-70
2023/02/10 09:19:27;;;;;;;129.75;38.53;;;2.40;99.90;;;;;;5041548;28;20090;-69
2023/02/10 09:21:52;;;;;;;128.40;39.33;;;2.50;99.90;;;;;;5035541;28;20036;-70
2023/02/10 09:24:18;;;;;;;127.88;42.40;;;2.60;99.90;;;;;;5032098;28;20026;-69
2023/02/10 09:26:44;;;;;;;126.90;38.67;;;2.70;99.90;;;;;;5032270;28;20028;-70
2023/02/10 09:29:10;;;;;;;119.80;36.03;;;2.70;99.90;;;;;;5032143;28;20021;-70
2023/02/10 09:31:36;;;;;;;132.07;38.45;;;2.80;99.90;;;;;;5031832;28;20022;-70
2023/02/10 09:34:02;;;;;;;129.15;39.28;;;2.90;99.90;;;;;;5031863;28;20033;-70
2023/02/10 09:36:28;;;;;;;130.48;38.97;;;3.00;99.90;;;;;;5031191;28;20457;-70
2023/02/10 09:38:55;;;;;;;136.32;39.35;;;3.00;99.90;;;;;;5032135;28;20030;-70
2023/02/10 09:41:33;;;;;;;134.68;39.97;;;3.10;99.90;;;;;;5033264;28;20021;-70
2023/02/10 09:44:07;;;;;;;130.70;37.33;;;3.20;99.90;;;;;;5039136;28;20501;-70
2023/02/10 09:46:39;;;;;;;119.25;37.15;;;3.30;99.90;;;;;;5031721;28;20397;-70
2023/02/10 09:49:19;;;;;;;126.38;39.92;;;3.40;99.90;;;;;;5030139;28;20560;-70
2023/02/10 09:52:13;;;;;;;122.15;37.10;;;3.50;99.90;;;;;;5031840;28;20032;-70
2023/02/10 09:54:39;;;;;;;128.10;38.42;;;3.50;99.90;;;;;;5031464;28;20353;-70
2023/02/10 09:57:14;;;;;;;129.23;35.60;;;3.60;99.90;;;;;;5035364;28;20061;-70
2023/02/10 09:59:42;;;;;;;124.82;35.35;;;3.60;99.90;;;;;;5051376;28;20098;-70
2023/02/10 10:02:26;;;;;;;128.38;38.40;;;3.60;99.90;;;;;;5050152;28;20376;-70
2023/02/10 10:04:53;;;;;;;131.13;37.08;;;3.60;99.90;;;;;;5051361;28;20055;-70
2023/02/10 10:07:35;;;;;;;136.32;38.25;;;3.70;99.90;;;;;;5042563;28;20507;-70
2023/02/10 10:10:11;;;;;;;119.70;37.42;;;3.70;99.90;;;;;;5031000;28;20037;-70
2023/02/10 10:12:36;;;;;;;131.93;37.00;;;3.80;99.90;;;;;;5031741;28;20029;-70
2023/02/10 10:15:04;;;;;;;137.65;38.05;;;3.80;99.90;;;;;;5031066;28;20385;-70
2023/02/10 10:17:52;;;;;;;131.85;37.40;;;3.90;99.90;;;;;;5029623;28;20026;-70
2023/02/10 10:20:36;;;;;;;122.95;37.92;;;4.00;99.90;;;;;;5044216;28;20025;-70
2023/02/10 10:23:14;;;;;;;124.85;37.58;;;4.10;99.90;;;;;;5034429;28;20036;-70
2023/02/10 10:26:08;;;;;;;134.48;38.90;;;4.20;99.90;;;;;;5037028;28;20039;-69
2023/02/10 10:28:42;;;;;;;131.93;39.95;;;4.30;99.90;;;;;;5035765;28;20017;-70
2023/02/10 10:31:20;;;;;;;131.80;39.55;;;4.30;99.90;;;;;;5031441;28;20026;-70
2023/02/10 10:33:59;;;;;;;122.60;38.08;;;4.40;99.90;;;;;;5031094;28;20017;-70
2023/02/10 10:36:35;;;;;;;132.70;40.10;;;4.40;99.90;;;;;;5030774;28;20486;-70
2023/02/10 10:39:21;;;;;;;115.82;37.10;;;4.50;99.90;;;;;;5030835;28;20488;-70
2023/02/10 10:41:47;;;;;;;116.32;37.10;;;4.60;99.90;;;;;;5048566;28;20037;-70
2023/02/10 10:44:16;;;;;;;118.45;38.13;;;4.70;99.90;;;;;;5045501;28;20045;-71
2023/02/10 10:47:08;;;;;;;115.82;35.88;;;4.80;99.90;;;;;;5034136;28;20060;-70
2023/02/10 10:49:35;;;;;;;96.15;32.72;;;4.90;99.90;;;;;;5032505;28;20384;-70
2023/02/10 10:52:01;;;;;;;108.60;33.78;;;4.90;99.90;;;;;;5035758;28;20114;-70
2023/02/10 10:54:27;;;;;;;104.35;33.88;;;5.00;99.90;;;;;;5040932;28;20063;-70
2023/02/10 10:57:04;;;;;;;91.10;33.08;;;5.10;99.90;;;;;;5031884;28;20049;-70
2023/02/10 11:00:01;;;;;;;94.80;31.55;;;5.10;99.90;;;;;;5041675;28;20095;-70
2023/02/10 11:02:27;;;;;;;85.22;30.50;;;5.20;99.90;;;;;;5030642;28;20033;-70
2023/02/10 11:05:15;;;;;;;85.93;29.73;;;5.30;99.90;;;;;;5030980;28;20037;-70
2023/02/10 11:07:41;;;;;;;85.07;28.63;;;5.30;99.90;;;;;;5033302;28;20381;-70
2023/02/10 11:10:38;;;;;;;82.53;29.95;;;5.40;99.90;;;;;;5035153;28;20061;-70
2023/02/10 11:13:05;;;;;;;81.80;29.80;;;5.50;99.90;;;;;;5034711;28;20481;-70
2023/02/10 11:15:38;;;;;;;81.68;29.40;;;5.50;99.90;;;;;;5034303;28;20026;-70
2023/02/10 11:18:07;;;;;;;87.55;28.83;;;5.60;99.90;;;;;;5039611;28;20079;-70
2023/02/10 11:20:35;;;;;;;75.18;26.42;;;5.70;99.90;;;;;;5037600;28;20095;-71
2023/02/10 11:23:11;;;;;;;77.00;28.02;;;5.80;99.90;;;;;;5034985;28;20100;-70
2023/02/10 11:25:37;;;;;;;77.97;27.95;;;5.80;99.90;;;;;;5035185;28;20025;-70
2023/02/10 11:28:06;;;;;;;82.07;28.23;;;5.90;99.90;;;;;;5041859;28;20032;-70
2023/02/10 11:30:37;;;;;;;63.63;26.23;;;5.90;99.90;;;;;;5033627;28;20471;-70
2023/02/10 11:33:05;;;;;;;79.03;27.13;;;6.00;99.90;;;;;;5041005;28;20385;-70
2023/02/10 11:35:32;;;;;;;76.47;28.05;;;6.10;99.90;;;;;;5034053;28;20101;-70
2023/02/10 11:38:07;;;;;;;67.95;24.17;;;6.20;99.90;;;;;;5034694;28;20401;-70
2023/02/10 11:41:01;;;;;;;63.30;25.83;;;6.30;99.90;;;;;;5033366;28;20056;-70
2023/02/10 11:43:35;;;;;;;72.70;27.55;;;6.40;99.90;;;;;;5051313;28;20385;-70
2023/02/10 11:46:05;;;;;;;68.72;25.55;;;6.40;99.90;;;;;;5042089;28;20052;-70
2023/02/10 11:48:31;;;;;;;69.15;26.48;;;6.50;99.90;;;;;;5036598;28;20021;-71
2023/02/10 11:51:03;;;;;;;65.40;24.85;;;6.60;99.90;;;;;;5032534;28;20060;-70
2023/02/10 11:53:32;;;;;;;65.35;25.85;;;6.70;99.90;;;;;;5034909;28;20562;-70
2023/02/10 11:58:58;;;;;;;60.22;23.35;;;6.80;99.90;;;;;;5033654;28;20045;-70
2023/02/10 11:59:34;;;;;;;58.03;22.48;;;6.90;99.90;;;;;;5033331;28;20033;-70
2023/02/10 12:02:02;;;;;;;53.63;21.15;;;6.90;99.90;;;;;;5032403;28;20025;-70
2023/02/10 12:05:04;;;;;;;53.53;22.17;;;7.00;99.90;;;;;;5043320;28;20032;-70
2023/02/10 12:08:03;;;;;;;55.58;20.77;;;7.00;99.90;;;;;;5033434;28;20078;-70
2023/02/10 12:10:41;;;;;;;62.25;21.27;;;7.10;99.90;;;;;;5046035;28;20128;-70
2023/02/10 12:13:12;;;;;;;52.83;20.08;;;7.20;99.90;;;;;;5032083;28;20225;-71
2023/02/10 12:16:04;;;;;;;49.30;19.37;;;7.20;99.90;;;;;;5032683;28;20029;-70
2023/02/10 12:18:45;;;;;;;52.85;19.35;;;7.30;99.90;;;;;;5039118;28;20025;-71
2023/02/10 12:21:13;;;;;;;46.08;17.95;;;7.40;99.90;;;;;;5041962;28;20032;-71
2023/02/10 12:24:07;;;;;;;49.83;18.27;;;7.40;99.90;;;;;;5040326;28;20027;-70
2023/02/10 12:26:43;;;;;;;41.25;15.95;;;7.50;99.90;;;;;;5047603;28;20491;-70
2023/02/10 12:29:29;;;;;;;49.80;17.75;;;7.60;99.90;;;;;;5033686;28;20033;-70
2023/02/10 12:32:21;;;;;;;47.85;17.63;;;7.60;99.90;;;;;;5034134;28;20052;-70
2023/02/10 12:35:08;;;;;;;39.63;17.40;;;7.70;99.90;;;;;;5038400;28;20496;-70
2023/02/10 12:38:04;;;;;;;43.25;16.08;;;7.80;99.90;;;;;;5036937;28;20094;-70
2023/02/10 12:40:58;;;;;;;40.47;15.98;;;7.80;99.90;;;;;;5038062;28;20036;-70
2023/02/10 12:43:34;;;;;;;37.88;16.65;;;8.00;99.90;;;;;;5033234;28;20036;-70
2023/02/10 12:46:26;;;;;;;42.97;17.23;;;8.00;99.90;;;;;;5031648;28;20079;-71
2023/02/10 12:49:22;;;;;;;40.95;16.00;;;8.00;99.90;;;;;;5035004;28;20025;-70
2023/02/10 12:52:10;;;;;;;39.45;15.60;;;8.10;99.90;;;;;;5033213;28;20028;-70